createdAt,value
2023-09-30T00:01:29.408Z,0.60
2023-09-30T00:03:56.125Z,0.80
2023-09-30T00:06:23.112Z,0.80
2023-09-30T00:08:49.690Z,0.68
2023-09-30T00:11:18.133Z,0.63
2023-09-30T00:13:45.015Z,0.90
2023-09-30T00:16:11.434Z,0.65
2023-09-30T00:18:37.920Z,0.60
2023-09-30T00:21:04.540Z,1.10
2023-09-30T00:23:31.082Z,1.20
2023-09-30T00:25:57.525Z,1.27
2023-09-30T00:28:23.900Z,1.38
2023-09-30T00:30:51.428Z,0.90
2023-09-30T00:33:18.435Z,0.90
2023-09-30T00:35:44.917Z,0.70
2023-09-30T00:38:11.546Z,0.68
2023-09-30T00:40:38.052Z,1.98
2023-09-30T00:43:04.855Z,0.93
2023-09-30T00:45:31.482Z,0.88
2023-09-30T00:47:58.205Z,0.80
2023-09-30T00:50:25.109Z,1.05
2023-09-30T00:52:51.760Z,0.95
2023-09-30T00:55:18.722Z,0.98
2023-09-30T00:57:45.598Z,1.63
2023-09-30T01:00:13.502Z,1.93
2023-09-30T01:02:42.367Z,2.08
2023-09-30T01:05:09.885Z,2.53
2023-09-30T01:07:36.767Z,2.10
2023-09-30T01:10:04.010Z,2.60
2023-09-30T01:12:30.570Z,2.90
2023-09-30T01:15:01.165Z,1.02
2023-09-30T01:17:30.201Z,1.17
2023-09-30T01:20:00.029Z,1.10
2023-09-30T01:22:26.658Z,1.10
2023-09-30T01:24:53.082Z,1.00
2023-09-30T01:27:20.373Z,1.75
2023-09-30T01:29:46.765Z,2.25
2023-09-30T01:32:14.978Z,1.30
2023-09-30T01:34:42.373Z,1.20
2023-09-30T01:37:08.817Z,1.77
2023-09-30T01:39:35.334Z,2.05
2023-09-30T01:42:01.882Z,2.10
2023-09-30T01:44:28.550Z,2.08
2023-09-30T01:46:55.191Z,1.90
2023-09-30T01:49:25.035Z,2.77
2023-09-30T01:51:51.448Z,2.50
2023-09-30T01:54:17.980Z,1.40
2023-09-30T01:56:44.553Z,1.08
2023-09-30T01:59:10.992Z,2.63
2023-09-30T02:01:37.399Z,3.63
2023-09-30T02:04:04.160Z,2.65
2023-09-30T02:06:30.766Z,2.78
2023-09-30T02:08:57.320Z,2.58
2023-09-30T02:11:23.789Z,2.20
2023-09-30T02:13:50.422Z,2.30
2023-09-30T02:16:16.872Z,2.63
2023-09-30T02:18:48.714Z,2.50
2023-09-30T02:21:15.199Z,2.83
2023-09-30T02:23:41.664Z,1.95
2023-09-30T02:26:08.287Z,2.37
2023-09-30T02:28:35.316Z,2.42
2023-09-30T02:31:01.867Z,2.00
2023-09-30T02:33:28.583Z,1.90
2023-09-30T02:35:55.346Z,2.85
2023-09-30T02:38:22.092Z,2.87
2023-09-30T02:40:49.686Z,2.47
2023-09-30T02:43:16.203Z,3.35
2023-09-30T02:45:42.706Z,3.35
2023-09-30T02:48:09.692Z,4.40
2023-09-30T02:50:36.294Z,3.67
2023-09-30T02:53:02.821Z,3.67
2023-09-30T02:55:29.357Z,3.13
2023-09-30T02:57:55.785Z,3.95
2023-09-30T03:00:26.908Z,2.33
2023-09-30T03:02:54.768Z,2.73
2023-09-30T03:05:21.739Z,2.85
2023-09-30T03:07:48.833Z,2.80
2023-09-30T03:10:21.075Z,4.40
2023-09-30T03:12:48.701Z,5.30
2023-09-30T03:15:15.919Z,3.33
2023-09-30T03:17:42.709Z,3.30
2023-09-30T03:20:12.743Z,3.67
2023-09-30T03:22:41.431Z,4.00
2023-09-30T03:25:10.129Z,3.88
2023-09-30T03:27:37.361Z,3.40
2023-09-30T03:30:06.747Z,3.78
2023-09-30T03:32:34.487Z,4.35
2023-09-30T03:35:02.053Z,3.38
2023-09-30T03:37:29.248Z,3.92
2023-09-30T03:39:56.112Z,4.03
2023-09-30T03:42:22.889Z,3.88
2023-09-30T03:44:52.630Z,3.92
2023-09-30T03:47:19.785Z,3.60
2023-09-30T03:49:46.356Z,4.40
2023-09-30T03:52:15.780Z,3.53
2023-09-30T03:54:42.878Z,4.05
2023-09-30T03:57:09.396Z,4.78
2023-09-30T03:59:35.820Z,4.82
2023-09-30T04:02:02.569Z,3.80
2023-09-30T04:04:29.380Z,5.23
2023-09-30T04:06:55.915Z,6.28
2023-09-30T04:09:22.344Z,6.05
2023-09-30T04:11:48.881Z,6.32
2023-09-30T04:14:18.221Z,6.57
2023-09-30T04:16:45.798Z,5.63
2023-09-30T04:19:12.677Z,5.65
2023-09-30T04:21:40.063Z,6.07
2023-09-30T04:24:07.941Z,5.80
2023-09-30T04:26:34.377Z,6.30
2023-09-30T04:29:02.258Z,6.43
2023-09-30T04:31:30.053Z,6.43
2023-09-30T04:33:59.038Z,7.72
2023-09-30T04:36:25.992Z,6.60
2023-09-30T04:38:52.453Z,6.63
2023-09-30T04:41:20.108Z,7.20
2023-09-30T04:43:47.432Z,6.93
2023-09-30T04:46:14.555Z,6.97
2023-09-30T04:48:42.604Z,5.57
2023-09-30T04:51:10.369Z,5.45
2023-09-30T04:53:37.297Z,4.87
2023-09-30T04:56:04.530Z,3.85
2023-09-30T04:58:31.198Z,5.72
2023-09-30T05:00:58.183Z,5.38
2023-09-30T05:03:25.621Z,5.95
2023-09-30T05:05:54.888Z,7.43
2023-09-30T05:08:21.290Z,7.50
2023-09-30T05:10:47.753Z,7.50
2023-09-30T05:13:14.146Z,7.70
2023-09-30T05:15:42.930Z,7.68
2023-09-30T05:18:10.720Z,7.63
2023-09-30T05:20:38.854Z,6.55
2023-09-30T05:23:07.998Z,6.05
2023-09-30T05:25:34.446Z,6.88
2023-09-30T05:28:00.920Z,6.03
2023-09-30T05:30:27.401Z,7.77
2023-09-30T05:32:54.171Z,8.18
2023-09-30T05:35:23.369Z,7.70
2023-09-30T05:37:53.125Z,8.45
2023-09-30T05:40:25.958Z,8.77
2023-09-30T05:42:54.488Z,8.83
2023-09-30T05:45:21.392Z,8.77
2023-09-30T05:47:50.999Z,9.13
2023-09-30T05:50:24.978Z,8.48
2023-09-30T05:52:56.170Z,8.27
2023-09-30T05:55:23.634Z,8.47
2023-09-30T05:57:51.130Z,8.63
2023-09-30T06:00:24.867Z,9.10
2023-09-30T06:02:53.257Z,9.07
2023-09-30T06:05:20.409Z,9.23
2023-09-30T06:07:47.831Z,8.57
2023-09-30T06:10:19.408Z,8.40
2023-09-30T06:12:49.983Z,8.75
2023-09-30T06:15:17.433Z,8.65
2023-09-30T06:17:44.194Z,8.73
2023-09-30T06:20:17.390Z,9.77
2023-09-30T06:22:46.352Z,9.43
2023-09-30T06:25:19.308Z,9.60
2023-09-30T06:27:47.220Z,9.38
2023-09-30T06:30:14.719Z,9.75
2023-09-30T06:32:41.557Z,10.37
2023-09-30T06:35:11.231Z,10.07
2023-09-30T06:37:41.041Z,10.57
2023-09-30T06:40:09.581Z,9.40
2023-09-30T06:42:36.794Z,10.23
2023-09-30T06:45:07.227Z,9.47
2023-09-30T06:47:37.956Z,8.68
2023-09-30T06:50:08.802Z,8.38
2023-09-30T06:52:36.427Z,8.18
2023-09-30T06:55:05.546Z,7.90
2023-09-30T06:57:36.573Z,10.30
2023-09-30T07:00:09.874Z,10.00
2023-09-30T07:02:37.400Z,11.57
2023-09-30T07:05:10.952Z,10.43
2023-09-30T07:07:37.548Z,9.98
2023-09-30T07:10:07.955Z,9.50
2023-09-30T07:12:36.973Z,11.10
2023-09-30T07:15:05.735Z,10.70
2023-09-30T07:17:35.990Z,9.60
2023-09-30T07:20:03.946Z,11.77
2023-09-30T07:24:59.968Z,10.63
2023-09-30T07:27:28.580Z,10.88
2023-09-30T07:29:55.620Z,10.27
2023-09-30T07:32:24.626Z,10.50
2023-09-30T07:34:51.634Z,10.70
2023-09-30T07:37:19.754Z,9.88
2023-09-30T07:39:46.676Z,9.52
2023-09-30T07:42:13.253Z,9.18
2023-09-30T07:44:39.692Z,8.98
2023-09-30T07:47:10.551Z,8.27
2023-09-30T07:49:37.065Z,8.15
2023-09-30T07:52:04.813Z,7.28
2023-09-30T07:54:32.318Z,7.40
2023-09-30T07:57:00.253Z,7.05
2023-09-30T07:59:27.967Z,7.13
2023-09-30T08:01:54.585Z,5.85
2023-09-30T08:04:21.285Z,7.90
2023-09-30T08:06:48.197Z,6.30
2023-09-30T08:09:15.152Z,6.38
2023-09-30T08:11:41.676Z,6.20
2023-09-30T08:14:10.192Z,6.15
2023-09-30T08:16:37.985Z,6.03
2023-09-30T08:19:05.234Z,5.95
2023-09-30T08:21:32.168Z,6.00
2023-09-30T08:23:59.197Z,5.47
2023-09-30T08:26:25.787Z,6.05
2023-09-30T08:28:52.337Z,6.78
2023-09-30T08:31:18.969Z,5.45
2023-09-30T08:33:46.896Z,5.82
2023-09-30T08:36:13.818Z,6.70
2023-09-30T08:38:41.653Z,5.30
2023-09-30T08:41:08.504Z,5.05
2023-09-30T08:43:40.639Z,5.72
2023-09-30T08:46:07.822Z,5.35
2023-09-30T08:48:35.204Z,5.47
2023-09-30T08:51:03.194Z,4.68
2023-09-30T08:53:30.669Z,5.65
2023-09-30T08:55:59.977Z,4.55
2023-09-30T08:58:30.297Z,5.07
2023-09-30T09:00:57.594Z,5.10
2023-09-30T09:03:24.869Z,5.00
2023-09-30T09:05:57.217Z,4.97
2023-09-30T09:08:27.569Z,4.80
2023-09-30T09:11:06.700Z,4.78
2023-09-30T09:14:01.132Z,4.47
2023-09-30T09:16:27.602Z,4.47
2023-09-30T09:18:54.446Z,4.65
2023-09-30T09:21:24.136Z,4.80
2023-09-30T09:23:52.783Z,5.03
2023-09-30T09:26:26.888Z,4.63
2023-09-30T09:29:01.268Z,4.07
2023-09-30T09:31:29.911Z,5.28
2023-09-30T09:33:56.921Z,4.40
2023-09-30T09:36:43.014Z,4.13
2023-09-30T09:39:09.825Z,3.50
2023-09-30T09:41:54.404Z,4.30
2023-09-30T09:44:23.025Z,3.30
2023-09-30T09:46:51.392Z,2.97
2023-09-30T09:49:19.621Z,3.05
2023-09-30T09:51:47.801Z,3.03
2023-09-30T09:54:16.012Z,3.35
2023-09-30T09:56:45.396Z,3.75
2023-09-30T09:59:14.318Z,3.25
2023-09-30T10:01:46.516Z,3.72
2023-09-30T10:04:16.148Z,4.03
2023-09-30T10:06:46.044Z,3.17
2023-09-30T10:09:15.214Z,2.97
2023-09-30T10:11:43.020Z,3.10
2023-09-30T10:14:15.752Z,2.63
2023-09-30T10:16:44.959Z,2.43
2023-09-30T10:19:31.794Z,2.20
2023-09-30T10:22:23.257Z,2.38
2023-09-30T10:25:02.541Z,1.55
2023-09-30T10:27:33.401Z,1.35
2023-09-30T10:30:02.898Z,1.60
2023-09-30T10:32:51.231Z,1.70
2023-09-30T10:35:18.774Z,1.75
2023-09-30T10:37:46.313Z,2.30
2023-09-30T10:40:32.981Z,2.40
2023-09-30T10:42:59.601Z,2.00
2023-09-30T10:45:42.112Z,1.60
2023-09-30T10:48:37.939Z,1.60
2023-09-30T10:51:22.095Z,2.22
2023-09-30T10:53:54.069Z,2.20
2023-09-30T10:56:21.353Z,1.47
2023-09-30T10:58:50.359Z,1.58
2023-09-30T11:01:19.099Z,1.70
2023-09-30T11:03:47.218Z,1.15
2023-09-30T11:06:18.527Z,1.33
2023-09-30T11:08:52.083Z,1.57
2023-09-30T11:11:18.521Z,1.63
2023-09-30T11:13:45.431Z,2.65
2023-09-30T11:16:11.931Z,1.58
2023-09-30T11:18:41.231Z,1.70
2023-09-30T11:21:13.942Z,1.07
2023-09-30T11:23:42.435Z,1.20
2023-09-30T11:26:08.975Z,1.50
2023-09-30T11:28:40.808Z,1.15
2023-09-30T11:31:13.100Z,1.50
2023-09-30T11:33:52.928Z,0.93
2023-09-30T11:36:23.654Z,1.45
2023-09-30T11:38:54.203Z,0.80
2023-09-30T11:41:21.143Z,0.70
2023-09-30T11:44:02.466Z,0.77
2023-09-30T11:46:29.187Z,1.57
2023-09-30T11:49:01.246Z,0.90
2023-09-30T11:51:32.231Z,1.92
2023-09-30T11:53:58.896Z,2.22
2023-09-30T11:56:30.285Z,1.90
2023-09-30T11:58:57.712Z,3.67
2023-09-30T12:01:26.374Z,2.58
2023-09-30T12:03:56.953Z,1.50
2023-09-30T12:06:25.049Z,1.80
2023-09-30T12:08:52.791Z,0.88
2023-09-30T12:11:20.192Z,2.47
2023-09-30T12:13:49.432Z,1.38
2023-09-30T12:16:17.102Z,1.25
2023-09-30T12:18:43.632Z,1.13
2023-09-30T12:21:14.530Z,1.45
2023-09-30T12:23:41.395Z,1.83
2023-09-30T12:26:14.927Z,1.48
2023-09-30T12:28:42.064Z,1.40
2023-09-30T12:31:08.666Z,0.50
2023-09-30T12:33:35.228Z,1.10
2023-09-30T12:36:01.818Z,1.03
2023-09-30T12:38:29.303Z,0.73
2023-09-30T12:40:56.453Z,1.00
2023-09-30T12:43:23.369Z,1.05
2023-09-30T12:45:49.818Z,0.88
2023-09-30T12:48:16.383Z,0.80
2023-09-30T12:50:42.846Z,0.80
2023-09-30T12:53:09.225Z,0.95
2023-09-30T12:55:35.612Z,1.10
2023-09-30T12:58:02.052Z,0.82
2023-09-30T13:00:31.920Z,0.77
2023-09-30T13:02:59.050Z,1.15
2023-09-30T13:05:26.476Z,1.05
2023-09-30T13:07:53.795Z,0.82
2023-09-30T13:10:20.528Z,1.15
2023-09-30T13:12:47.176Z,1.00
2023-09-30T13:15:15.324Z,0.95
2023-09-30T13:17:41.814Z,1.05
2023-09-30T13:20:10.033Z,0.90
2023-09-30T13:22:40.015Z,0.60
2023-09-30T13:25:09.137Z,0.97
2023-09-30T13:27:35.859Z,0.70
2023-09-30T13:30:02.623Z,1.20
2023-09-30T13:32:29.212Z,1.05
2023-09-30T13:34:55.782Z,0.80
2023-09-30T13:37:23.540Z,1.40
2023-09-30T13:39:51.359Z,0.80
2023-09-30T13:42:18.806Z,0.93
2023-09-30T13:44:45.252Z,1.52
2023-09-30T13:47:11.744Z,0.95
2023-09-30T13:49:38.135Z,0.90
2023-09-30T13:52:05.324Z,1.10
2023-09-30T13:54:32.113Z,0.95
2023-09-30T13:56:58.499Z,1.00
2023-09-30T13:59:24.950Z,1.33
2023-09-30T14:01:51.604Z,1.00
2023-09-30T14:04:18.063Z,0.95
2023-09-30T14:06:44.621Z,0.88
2023-09-30T14:09:25.090Z,1.13
2023-09-30T14:11:56.083Z,1.20
2023-09-30T14:14:22.587Z,1.67
2023-09-30T14:16:49.157Z,1.20
2023-09-30T14:19:15.712Z,0.82
2023-09-30T14:21:42.371Z,1.13
2023-09-30T14:24:09.304Z,1.17
2023-09-30T14:26:35.827Z,1.37
2023-09-30T14:29:02.269Z,1.65
2023-09-30T14:31:28.726Z,1.75
2023-09-30T14:33:55.640Z,1.40
2023-09-30T14:36:23.839Z,1.60
2023-09-30T14:39:00.508Z,1.40
2023-09-30T14:41:37.048Z,1.75
2023-09-30T14:44:08.675Z,1.00
2023-09-30T14:46:36.193Z,1.27
2023-09-30T14:49:02.803Z,1.50
2023-09-30T14:51:29.259Z,1.20
2023-09-30T14:53:55.679Z,1.38
2023-09-30T14:56:22.587Z,1.40
2023-09-30T14:58:49.028Z,1.50
2023-09-30T15:01:15.789Z,1.42
2023-09-30T15:03:42.744Z,1.67
2023-09-30T15:06:10.373Z,1.30
2023-09-30T15:08:37.317Z,1.55
2023-09-30T15:11:04.228Z,1.45
2023-09-30T15:13:31.404Z,1.20
2023-09-30T15:15:57.991Z,1.33
2023-09-30T15:18:24.533Z,1.08
2023-09-30T15:20:51.362Z,1.50
2023-09-30T15:23:17.757Z,1.42
2023-09-30T15:25:45.100Z,1.13
2023-09-30T15:28:14.928Z,0.60
2023-09-30T15:30:42.067Z,1.05
2023-09-30T15:33:09.606Z,1.45
2023-09-30T15:35:36.365Z,0.80
2023-09-30T15:38:02.865Z,0.95
2023-09-30T15:40:29.510Z,0.80
2023-09-30T15:42:56.014Z,0.63
2023-09-30T15:45:22.918Z,1.00
2023-09-30T15:47:49.507Z,1.20
2023-09-30T15:50:16.857Z,1.30
2023-09-30T15:52:45.343Z,1.20
2023-09-30T15:55:12.245Z,1.88
2023-09-30T15:57:43.394Z,0.95
2023-09-30T16:00:11.310Z,1.38
2023-09-30T16:02:37.850Z,0.65
2023-09-30T16:05:04.659Z,0.80
2023-09-30T16:07:31.142Z,1.50
2023-09-30T16:09:57.723Z,0.63
2023-09-30T16:12:24.160Z,1.10
2023-09-30T16:14:50.861Z,1.20
2023-09-30T16:17:18.382Z,1.03
2023-09-30T16:19:44.856Z,1.10
2023-09-30T16:22:11.372Z,1.08
2023-09-30T16:24:37.862Z,1.20
2023-09-30T16:27:05.166Z,1.23
2023-09-30T16:29:31.558Z,1.20
2023-09-30T16:31:58.006Z,1.35
2023-09-30T16:34:24.487Z,0.88
2023-09-30T16:36:50.966Z,0.82
2023-09-30T16:39:17.852Z,1.08
2023-09-30T16:41:44.278Z,0.80
2023-09-30T16:44:10.732Z,1.00
2023-09-30T16:46:37.642Z,0.73
2023-09-30T16:49:04.171Z,0.65
2023-09-30T16:51:30.850Z,0.75
2023-09-30T16:53:57.416Z,1.13
2023-09-30T16:56:26.890Z,0.70
2023-09-30T16:58:55.698Z,1.20
2023-09-30T17:01:23.293Z,1.05
2023-09-30T17:03:50.061Z,0.57
2023-09-30T17:06:17.273Z,0.90
2023-09-30T17:08:43.752Z,0.93
2023-09-30T17:11:11.518Z,0.60
2023-09-30T17:13:38.166Z,1.15
2023-09-30T17:16:07.238Z,0.80
2023-09-30T17:18:34.912Z,1.17
2023-09-30T17:21:01.473Z,0.55
2023-09-30T17:23:27.984Z,0.57
2023-09-30T17:26:01.069Z,1.00
2023-09-30T17:28:27.664Z,0.75
2023-09-30T17:30:54.175Z,0.87
2023-09-30T17:33:20.943Z,0.70
2023-09-30T17:35:48.198Z,0.98
2023-09-30T17:38:14.679Z,0.90
2023-09-30T17:40:41.358Z,0.80
2023-09-30T17:43:08.393Z,0.70
2023-09-30T17:45:35.014Z,0.80
2023-09-30T17:48:02.137Z,0.98
2023-09-30T17:50:28.650Z,0.80
2023-09-30T17:52:55.113Z,0.82
2023-09-30T17:55:21.582Z,1.00
2023-09-30T17:57:48.045Z,0.85
2023-09-30T18:00:15.127Z,1.00
2023-09-30T18:02:41.646Z,0.93
2023-09-30T18:05:08.848Z,1.15
2023-09-30T18:07:36.399Z,1.10
2023-09-30T18:10:03.344Z,1.38
2023-09-30T18:12:29.805Z,1.30
2023-09-30T18:14:56.218Z,0.82
2023-09-30T18:17:22.667Z,1.08
2023-09-30T18:19:50.279Z,0.70
2023-09-30T18:22:16.752Z,1.20
2023-09-30T18:24:43.252Z,1.30
2023-09-30T18:27:09.721Z,0.60
2023-09-30T18:29:36.126Z,0.85
2023-09-30T18:32:03.957Z,1.23
2023-09-30T18:34:30.713Z,1.30
2023-09-30T18:36:57.131Z,1.00
2023-09-30T18:39:26.740Z,0.80
2023-09-30T18:41:53.636Z,1.10
2023-09-30T18:44:20.057Z,0.70
2023-09-30T18:46:46.579Z,0.80
2023-09-30T18:49:13.128Z,0.82
2023-09-30T18:51:39.548Z,1.00
2023-09-30T18:54:10.006Z,1.00
2023-09-30T18:56:38.193Z,1.57
2023-09-30T18:59:04.934Z,1.67
2023-09-30T19:01:31.691Z,0.75
2023-09-30T19:03:58.651Z,1.10
2023-09-30T19:06:25.420Z,1.40
2023-09-30T19:08:51.818Z,1.27
2023-09-30T19:11:19.806Z,1.55
2023-09-30T19:13:46.744Z,2.05
2023-09-30T19:16:13.418Z,1.60
2023-09-30T19:18:39.871Z,3.38
2023-09-30T19:21:07.438Z,2.40
2023-09-30T19:23:34.193Z,2.10
2023-09-30T19:26:00.781Z,1.98
2023-09-30T19:28:27.267Z,2.05
2023-09-30T19:30:53.983Z,2.17
2023-09-30T19:33:20.514Z,1.47
2023-09-30T19:35:47.053Z,1.73
2023-09-30T19:38:13.610Z,1.73
2023-09-30T19:40:40.091Z,2.47
2023-09-30T19:43:06.698Z,2.03
2023-09-30T19:45:33.232Z,2.50
2023-09-30T19:48:00.042Z,1.85
2023-09-30T19:50:28.439Z,2.55
2023-09-30T19:52:55.163Z,2.22
2023-09-30T19:55:21.785Z,3.28
2023-09-30T19:57:48.508Z,1.87
2023-09-30T20:00:18.740Z,2.33
2023-09-30T20:02:46.600Z,2.40
2023-09-30T20:05:14.425Z,3.10
2023-09-30T20:07:41.301Z,2.45
2023-09-30T20:10:09.925Z,2.63
2023-09-30T20:12:37.200Z,2.78
2023-09-30T20:15:03.979Z,3.00
2023-09-30T20:17:30.533Z,2.78
2023-09-30T20:19:56.947Z,3.58
2023-09-30T20:22:23.525Z,2.33
2023-09-30T20:24:52.052Z,4.05
2023-09-30T20:27:18.564Z,3.00
2023-09-30T20:29:46.348Z,3.38
2023-09-30T20:32:12.822Z,3.95
2023-09-30T20:34:40.314Z,3.63
2023-09-30T20:37:06.756Z,3.22
2023-09-30T20:39:33.479Z,3.92
2023-09-30T20:41:59.902Z,3.42
2023-09-30T20:44:26.353Z,2.85
2023-09-30T20:46:52.872Z,3.73
2023-09-30T20:49:19.726Z,4.00
2023-09-30T20:51:46.634Z,4.13
2023-09-30T20:54:13.300Z,4.03
2023-09-30T20:56:40.577Z,3.88
2023-09-30T20:59:07.188Z,2.83
2023-09-30T21:01:34.427Z,4.68
2023-09-30T21:04:01.165Z,3.60
2023-09-30T21:06:27.569Z,4.30
2023-09-30T21:08:53.980Z,3.38
2023-09-30T21:11:21.400Z,3.20
2023-09-30T21:13:49.951Z,4.53
2023-09-30T21:16:16.450Z,3.97
2023-09-30T21:18:42.995Z,3.75
2023-09-30T21:21:12.875Z,4.40
2023-09-30T21:23:39.797Z,3.90
2023-09-30T21:26:06.258Z,3.63
2023-09-30T21:28:32.814Z,4.03
2023-09-30T21:31:00.948Z,4.28
2023-09-30T21:33:27.577Z,3.70
2023-09-30T21:35:56.029Z,4.00
2023-09-30T21:38:22.788Z,4.75
2023-09-30T21:40:50.194Z,4.93
2023-09-30T21:43:16.708Z,4.82
2023-09-30T21:45:43.176Z,4.00
2023-09-30T21:48:09.646Z,3.80
2023-09-30T21:50:36.807Z,4.13
2023-09-30T21:53:03.788Z,3.97
2023-09-30T21:55:30.947Z,4.60
2023-09-30T21:57:57.554Z,5.60
2023-09-30T22:00:37.632Z,4.20
2023-09-30T22:03:06.114Z,4.72
2023-09-30T22:05:32.855Z,4.80
2023-09-30T22:07:59.539Z,4.38
2023-09-30T22:10:27.159Z,4.53
2023-09-30T22:12:53.785Z,4.83
2023-09-30T22:15:20.781Z,4.80
2023-09-30T22:17:47.924Z,4.95
2023-09-30T22:20:14.806Z,5.63
2023-09-30T22:22:41.562Z,5.20
2023-09-30T22:25:09.165Z,5.10
2023-09-30T22:27:35.629Z,5.00
2023-09-30T22:30:02.495Z,5.65
2023-09-30T22:32:28.927Z,5.10
2023-09-30T22:34:55.407Z,4.82
2023-09-30T22:37:21.846Z,4.60
2023-09-30T22:39:48.302Z,4.97
2023-09-30T22:42:14.789Z,5.03
2023-09-30T22:44:41.211Z,5.65
2023-09-30T22:47:07.761Z,5.78
2023-09-30T22:49:34.211Z,5.37
2023-09-30T22:52:00.734Z,5.25
2023-09-30T22:54:29.036Z,6.13
2023-09-30T22:56:55.747Z,5.03
2023-09-30T22:59:23.424Z,5.53
2023-09-30T23:01:50.081Z,5.40
2023-09-30T23:04:16.727Z,4.90
2023-09-30T23:06:43.437Z,5.43
2023-09-30T23:09:11.753Z,5.22
2023-09-30T23:11:41.672Z,5.38
2023-09-30T23:14:08.253Z,5.23
2023-09-30T23:16:35.511Z,5.43
2023-09-30T23:19:05.880Z,5.28
2023-09-30T23:21:32.432Z,5.45
2023-09-30T23:23:59.025Z,5.65
2023-09-30T23:26:25.605Z,5.13
2023-09-30T23:28:52.114Z,5.72
2023-09-30T23:31:19.264Z,5.60
2023-09-30T23:33:49.412Z,5.00
2023-09-30T23:36:16.180Z,5.68
2023-09-30T23:38:45.522Z,5.70
2023-09-30T23:41:12.238Z,5.40
2023-09-30T23:43:41.713Z,5.57
2023-09-30T23:46:09.680Z,4.95
2023-09-30T23:48:36.875Z,6.10
2023-09-30T23:51:05.540Z,5.50
2023-09-30T23:53:36.097Z,5.68
2023-09-30T23:56:06.574Z,6.03
2023-09-30T23:58:33.087Z,5.63
